Time;durP1;ratioP1;P1;durP2;ratioP2;P2;SDS_P1;SDS_P2;PMS_P1;PMS_P2;Temp;Humidity;BMP_temperature;BMP_pressure;BME280_temperature;BME280_humidity;BME280_pressure;Samples;Min_cycle;Max_cycle;Signal;HPM_P1;HPM_P2
2022/09/01 00:07:59;;;;;;;0.43;0.20;;;16.00;99.90;;;;;;20968844;28;20032;-81
2022/09/01 00:18:00;;;;;;;0.70;0.20;;;15.90;99.90;;;;;;20952266;28;20090;-80
2022/09/01 00:28:03;;;;;;;2.00;0.30;;;15.80;99.90;;;;;;20961820;28;20106;-80
2022/09/01 00:38:04;;;;;;;0.40;0.20;;;15.70;99.90;;;;;;20954386;28;20048;-81
2022/09/01 00:48:05;;;;;;;3.42;0.50;;;15.60;99.90;;;;;;20963958;28;20037;-80
2022/09/01 00:58:07;;;;;;;1.38;0.40;;;15.50;99.90;;;;;;20949074;28;20047;-80
2022/09/01 01:08:10;;;;;;;0.50;0.25;;;15.40;99.90;;;;;;20966490;28;21420;-81
2022/09/01 01:18:15;;;;;;;1.02;0.45;;;15.20;99.90;;;;;;20963744;28;20358;-81
2022/09/01 01:28:19;;;;;;;1.33;0.35;;;15.20;99.90;;;;;;20965710;28;20037;-81
2022/09/01 01:38:21;;;;;;;0.82;0.35;;;15.10;99.90;;;;;;20950203;28;20036;-81
2022/09/01 01:48:23;;;;;;;0.82;0.20;;;15.10;99.90;;;;;;20963807;28;20036;-82
2022/09/01 01:58:24;;;;;;;1.45;0.50;;;15.00;99.90;;;;;;20986193;28;20037;-81
2022/09/01 02:08:26;;;;;;;1.52;0.70;;;14.90;99.90;;;;;;20972404;28;20094;-80
2022/09/01 02:18:50;;;;;;;1.85;0.77;;;14.70;99.90;;;;;;20970140;28;21529;-82
2022/09/01 02:28:50;;;;;;;0.98;0.52;;;14.60;99.90;;;;;;20972783;28;20479;-82
2022/09/01 02:38:53;;;;;;;1.35;0.40;;;14.50;99.90;;;;;;20971454;28;20524;-81
2022/09/01 02:48:55;;;;;;;1.20;0.52;;;14.50;99.90;;;;;;20969806;28;20495;-81
2022/09/01 02:58:56;;;;;;;0.55;0.28;;;14.40;99.90;;;;;;20971010;28;20059;-81
2022/09/01 03:09:00;;;;;;;1.02;0.40;;;14.40;99.90;;;;;;20977035;28;20037;-81
2022/09/01 03:19:02;;;;;;;0.88;0.40;;;14.40;99.90;;;;;;20968900;28;20365;-81
2022/09/01 03:29:03;;;;;;;0.82;0.40;;;14.40;99.90;;;;;;20975492;28;20414;-82
2022/09/01 03:39:06;;;;;;;2.65;0.50;;;14.50;99.90;;;;;;20974071;28;20036;-81
2022/09/01 03:49:11;;;;;;;2.15;0.68;;;14.40;99.90;;;;;;20964482;28;20062;-82
2022/09/01 03:59:15;;;;;;;3.58;0.50;;;14.30;99.90;;;;;;20966332;28;21355;-81
2022/09/01 04:09:16;;;;;;;1.13;0.55;;;14.40;99.90;;;;;;20965975;28;20036;-81
2022/09/01 04:19:24;;;;;;;2.85;0.60;;;14.40;99.90;;;;;;20967462;28;20086;-81
2022/09/01 04:29:26;;;;;;;1.50;0.73;;;14.40;99.90;;;;;;20965519;28;20041;-82
2022/09/01 04:39:28;;;;;;;1.20;0.50;;;14.30;99.90;;;;;;20958957;28;20037;-81
2022/09/01 04:49:32;;;;;;;2.03;0.47;;;14.10;99.90;;;;;;20960909;28;20040;-81
2022/09/01 04:59:34;;;;;;;1.50;0.63;;;14.00;99.90;;;;;;20971468;28;20044;-82
2022/09/01 05:09:37;;;;;;;1.85;0.45;;;14.10;99.90;;;;;;20975648;28;20086;-81
2022/09/01 05:19:46;;;;;;;1.13;0.50;;;14.10;99.90;;;;;;20975297;28;20110;-82
2022/09/01 05:29:48;;;;;;;1.60;0.35;;;14.10;99.90;;;;;;20971168;28;20083;-82
2022/09/01 05:39:51;;;;;;;1.92;0.60;;;14.10;99.90;;;;;;20970540;28;20036;-82
2022/09/01 05:49:52;;;;;;;1.33;0.90;;;14.20;99.90;;;;;;20963155;28;20422;-82
2022/09/01 05:59:53;;;;;;;4.20;1.48;;;14.40;99.90;;;;;;20960854;28;20118;-82
2022/09/01 06:09:55;;;;;;;1.17;0.35;;;14.50;99.90;;;;;;20959480;28;20037;-82
2022/09/01 06:19:57;;;;;;;1.13;0.40;;;14.90;99.90;;;;;;20996092;28;20446;-82
2022/09/01 06:29:58;;;;;;;1.67;0.55;;;15.20;99.90;;;;;;20956234;28;20476;-84
2022/09/01 06:39:59;;;;;;;1.45;0.40;;;15.40;99.90;;;;;;20973819;28;20052;-82
2022/09/01 06:50:00;;;;;;;0.70;0.30;;;15.50;99.90;;;;;;20971609;28;20032;-83
2022/09/01 07:00:06;;;;;;;1.48;0.40;;;15.60;99.90;;;;;;20966334;28;20032;-82
2022/09/01 07:10:07;;;;;;;1.55;0.52;;;15.90;99.90;;;;;;20960740;28;20055;-83
2022/09/01 07:20:10;;;;;;;0.45;0.20;;;16.30;99.90;;;;;;20939279;28;20438;-81
2022/09/01 07:30:11;;;;;;;0.60;0.20;;;16.50;99.90;;;;;;20945123;28;20460;-82
2022/09/01 07:40:17;;;;;;;3.33;0.40;;;16.80;99.90;;;;;;20966003;28;20090;-82
2022/09/01 07:50:19;;;;;;;1.05;0.40;;;17.10;99.90;;;;;;20965225;28;20110;-81
2022/09/01 08:00:20;;;;;;;1.45;0.68;;;17.40;99.90;;;;;;20940104;28;20040;-81
2022/09/01 08:10:21;;;;;;;0.93;0.40;;;17.80;99.90;;;;;;20942677;28;20032;-81
2022/09/01 08:20:23;;;;;;;0.80;0.43;;;18.30;99.90;;;;;;20941310;28;20032;-79
2022/09/01 08:30:24;;;;;;;1.17;0.35;;;18.80;99.90;;;;;;20961220;28;20044;-79
2022/09/01 08:40:25;;;;;;;0.57;0.35;;;19.20;99.90;;;;;;20932101;28;20106;-79
2022/09/01 08:50:26;;;;;;;1.48;0.77;;;19.70;99.90;;;;;;20933979;28;20086;-78
2022/09/01 09:00:35;;;;;;;0.63;0.30;;;20.30;99.90;;;;;;20950928;28;20094;-78
2022/09/01 09:11:05;;;;;;;1.15;0.28;;;20.80;99.90;;;;;;20953090;28;20442;-79
2022/09/01 09:21:24;;;;;;;4.47;1.00;;;21.50;99.90;;;;;;20947106;28;20093;-81
2022/09/01 09:31:47;;;;;;;1.23;0.20;;;21.80;99.80;;;;;;20965564;28;24462;-82
2022/09/01 09:42:08;;;;;;;1.20;0.20;;;22.30;98.80;;;;;;20948620;28;20110;-81
2022/09/01 09:52:15;;;;;;;1.95;0.30;;;22.60;98.20;;;;;;20950057;28;20842;-81
2022/09/01 10:02:36;;;;;;;0.60;0.30;;;22.80;97.00;;;;;;20936161;28;20663;-80
2022/09/01 10:12:37;;;;;;;1.15;0.38;;;23.10;96.40;;;;;;20949899;28;20036;-80
2022/09/01 10:22:39;;;;;;;0.50;0.13;;;23.30;96.00;;;;;;20981634;28;20036;-84
2022/09/01 10:32:59;;;;;;;0.22;0.10;;;23.70;95.10;;;;;;20987663;28;20395;-80
2022/09/01 10:43:24;;;;;;;0.40;0.10;;;24.00;93.60;;;;;;20990896;28;20052;-81
2022/09/01 10:53:40;;;;;;;1.15;0.20;;;24.30;92.40;;;;;;20976456;28;20538;-80
2022/09/01 11:03:51;;;;;;;0.60;0.20;;;24.80;91.80;;;;;;20959935;28;20037;-80
2022/09/01 11:14:00;;;;;;;0.25;0.15;;;25.00;91.50;;;;;;20972896;28;20561;-80
2022/09/01 11:24:38;;;;;;;0.20;0.10;;;25.50;91.30;;;;;;20978310;28;20020;-80
2022/09/01 11:34:43;;;;;;;;;;;26.10;91.60;;;;;;20977253;28;20546;-80
2022/09/01 11:45:02;;;;;;;1.70;0.40;;;26.30;90.10;;;;;;20974082;28;19936;-80
2022/09/01 11:55:05;;;;;;;0.85;0.30;;;26.30;89.30;;;;;;20957694;28;20044;-80
2022/09/01 12:05:23;;;;;;;0.20;0.10;;;26.40;89.10;;;;;;20948865;28;20511;-80
2022/09/01 12:15:25;;;;;;;0.50;0.15;;;26.70;87.80;;;;;;20954952;28;20048;-80
2022/09/01 12:25:32;;;;;;;2.20;0.35;;;26.70;87.80;;;;;;20963942;28;20110;-80
2022/09/01 12:35:34;;;;;;;0.88;0.10;;;27.00;84.30;;;;;;20960074;28;20561;-80
2022/09/01 12:45:36;;;;;;;0.10;0.10;;;27.20;81.90;;;;;;20974896;28;20033;-81
2022/09/01 12:55:37;;;;;;;0.13;0.10;;;27.60;81.10;;;;;;20977284;28;20133;-80
2022/09/01 13:05:49;;;;;;;0.57;0.10;;;27.90;80.80;;;;;;20975600;28;20033;-80
2022/09/01 13:15:53;;;;;;;0.20;0.10;;;28.20;79.70;;;;;;20977261;28;20036;-81
2022/09/01 13:25:54;;;;;;;0.47;0.10;;;28.60;79.00;;;;;;20994034;28;20045;-80
2022/09/01 13:35:55;;;;;;;0.77;0.30;;;29.20;76.20;;;;;;20983450;28;20043;-80
2022/09/01 13:45:56;;;;;;;0.30;0.20;;;29.70;76.00;;;;;;20991277;28;20028;-80
2022/09/01 13:55:57;;;;;;;0.10;0.10;;;29.40;76.90;;;;;;20997300;28;20036;-80
2022/09/01 14:05:58;;;;;;;0.77;0.20;;;29.10;76.30;;;;;;21001493;28;20089;-80
2022/09/01 14:16:00;;;;;;;0.40;0.20;;;28.90;76.80;;;;;;20997115;28;20036;-80
2022/09/01 14:26:01;;;;;;;1.95;0.38;;;28.50;78.70;;;;;;20998808;28;20055;-80
2022/09/01 14:36:03;;;;;;;0.80;0.40;;;27.60;76.00;;;;;;20971553;28;20038;-80
2022/09/01 14:46:08;;;;;;;0.45;0.10;;;27.00;76.90;;;;;;20971263;28;20048;-80
2022/09/01 14:56:09;;;;;;;0.35;0.10;;;26.70;77.30;;;;;;20966678;28;22014;-81
2022/09/01 15:06:14;;;;;;;0.45;0.40;;;26.60;77.00;;;;;;20977736;28;20036;-81
2022/09/01 15:16:21;;;;;;;6.50;0.32;;;26.40;77.90;;;;;;20973022;28;20429;-80
2022/09/01 15:26:22;;;;;;;1.70;0.20;;;26.10;78.40;;;;;;20959150;28;20055;-80
2022/09/01 15:36:25;;;;;;;0.63;0.10;;;25.90;79.10;;;;;;20968221;28;20078;-81
2022/09/01 15:46:31;;;;;;;1.50;0.20;;;25.60;78.70;;;;;;20983953;28;20075;-82
2022/09/01 15:56:32;;;;;;;2.63;0.35;;;25.60;79.80;;;;;;20977556;28;20040;-81
2022/09/01 16:06:34;;;;;;;0.63;0.30;;;25.50;79.30;;;;;;20999035;28;20509;-81
2022/09/01 16:16:44;;;;;;;0.32;0.13;;;25.30;79.20;;;;;;20984970;28;20048;-82
2022/09/01 16:26:47;;;;;;;0.20;0.10;;;25.20;79.60;;;;;;20990363;28;20506;-81
2022/09/01 16:37:06;;;;;;;0.30;0.10;;;25.00;79.60;;;;;;20981015;28;20048;-81
2022/09/01 16:47:35;;;;;;;0.35;0.10;;;24.80;80.20;;;;;;20973559;28;20079;-81
2022/09/01 16:57:55;;;;;;;1.23;0.20;;;24.70;81.40;;;;;;20966059;28;20957;-81
2022/09/01 17:08:15;;;;;;;1.65;0.30;;;24.50;82.30;;;;;;20962621;28;20032;-81
2022/09/01 17:18:20;;;;;;;0.50;0.30;;;24.30;81.90;;;;;;20974790;28;21200;-81
2022/09/01 17:28:26;;;;;;;0.30;0.15;;;24.00;83.60;;;;;;20987954;28;20044;-81
2022/09/01 17:38:52;;;;;;;0.40;0.20;;;23.80;85.80;;;;;;20977708;28;20052;-81
2022/09/01 17:49:02;;;;;;;0.85;0.30;;;23.60;87.80;;;;;;20988144;28;20033;-81
2022/09/01 17:59:14;;;;;;;0.47;0.28;;;23.30;90.60;;;;;;20965861;28;20067;-81
2022/09/01 18:09:20;;;;;;;1.02;0.60;;;23.00;91.00;;;;;;20974117;28;21525;-81
2022/09/01 18:19:25;;;;;;;12.65;0.40;;;22.70;91.80;;;;;;20991887;28;20086;-81
2022/09/01 18:29:30;;;;;;;0.90;0.32;;;22.40;93.10;;;;;;20986569;28;20040;-81
2022/09/01 18:39:44;;;;;;;0.40;0.20;;;21.90;95.60;;;;;;20996888;28;20105;-81
2022/09/01 18:50:00;;;;;;;1.02;0.32;;;21.40;96.50;;;;;;20997670;28;20044;-80
2022/09/01 19:00:14;;;;;;;0.90;0.50;;;21.10;95.60;;;;;;20992735;28;20047;-80
2022/09/01 19:10:21;;;;;;;0.70;0.43;;;20.80;97.10;;;;;;21006795;28;20543;-80
2022/09/01 19:20:54;;;;;;;0.85;0.30;;;20.50;96.80;;;;;;20995770;28;20502;-80
2022/09/01 19:31:01;;;;;;;0.70;0.47;;;20.30;97.60;;;;;;21005763;28;20044;-80
2022/09/01 19:41:23;;;;;;;0.87;0.60;;;20.00;98.10;;;;;;20994263;28;20036;-81
2022/09/01 19:51:43;;;;;;;0.60;0.22;;;19.80;97.50;;;;;;20992593;28;20542;-81
2022/09/01 20:01:56;;;;;;;0.40;0.20;;;19.60;97.10;;;;;;20983766;28;20422;-81
2022/09/01 20:12:27;;;;;;;0.80;0.30;;;19.40;97.30;;;;;;20979266;28;20032;-81
2022/09/01 20:23:06;;;;;;;0.43;0.20;;;19.30;98.30;;;;;;20984175;28;20579;-81
2022/09/01 20:33:15;;;;;;;0.50;0.22;;;19.20;98.30;;;;;;20972144;28;20442;-79
2022/09/01 20:43:22;;;;;;;0.57;0.20;;;18.90;99.20;;;;;;20961930;28;20620;-79
2022/09/01 20:53:59;;;;;;;1.10;0.45;;;18.70;99.90;;;;;;20971949;28;20048;-79
2022/09/01 21:04:19;;;;;;;0.95;0.40;;;18.60;98.80;;;;;;20977098;28;20531;-80
2022/09/01 21:14:38;;;;;;;0.65;0.30;;;18.60;98.10;;;;;;20989577;28;20929;-80
2022/09/01 21:24:42;;;;;;;0.98;0.28;;;18.60;99.10;;;;;;20968596;28;20037;-80
2022/09/01 21:34:45;;;;;;;0.98;0.20;;;18.50;98.50;;;;;;20969834;28;20082;-80
2022/09/01 21:44:47;;;;;;;2.60;0.50;;;18.40;98.70;;;;;;20960605;28;20078;-80
2022/09/01 21:54:48;;;;;;;0.63;0.20;;;18.30;98.70;;;;;;20961501;28;20044;-80
2022/09/01 22:04:49;;;;;;;1.00;0.30;;;18.20;99.10;;;;;;20947780;28;20135;-80
2022/09/01 22:14:50;;;;;;;0.50;0.20;;;18.10;98.50;;;;;;20974681;28;20055;-80
2022/09/01 22:24:51;;;;;;;0.73;0.30;;;18.00;97.70;;;;;;20960558;28;20032;-80
2022/09/01 22:34:52;;;;;;;0.52;0.30;;;17.90;98.30;;;;;;20983273;28;20066;-80
2022/09/01 22:44:53;;;;;;;0.32;0.17;;;17.90;97.80;;;;;;20964849;28;20278;-80
2022/09/01 22:54:56;;;;;;;0.40;0.20;;;17.80;97.90;;;;;;20963777;28;20123;-80
2022/09/01 23:04:57;;;;;;;0.55;0.20;;;17.60;97.90;;;;;;20962000;28;20048;-80
2022/09/01 23:14:58;;;;;;;0.30;0.13;;;17.50;98.60;;;;;;20969973;28;20047;-80
2022/09/01 23:24:59;;;;;;;0.25;0.15;;;17.40;98.60;;;;;;20957646;28;20045;-80
2022/09/01 23:35:00;;;;;;;0.93;0.20;;;17.40;98.10;;;;;;20959246;28;20861;-80
2022/09/01 23:45:02;;;;;;;0.80;0.40;;;17.30;98.90;;;;;;20963570;28;20094;-81
2022/09/01 23:55:03;;;;;;;0.65;0.30;;;17.30;98.50;;;;;;20944737;28;20063;-80
